Date,TemperatureHighF,TemperatureAvgF,TemperatureLowF,DewpointHighF,DewpointAvgF,DewpointLowF,HumidityHigh,HumidityAvg,HumidityLow,PressureMaxIn,PressureMinIn,WindSpeedMaxMPH,WindSpeedAvgMPH,GustSpeedMaxMPH,PrecipitationSumIn
2012-1-1,62,44,15,26,13,7,86,39,11,0.00,40.00,8,4,12,0.00
2012-1-2,61,42,20,20,13,7,87,36,15,0.00,40.00,10,5,15,0.00
2012-1-3,59,38,17,26,17,13,88,52,17,0.00,40.00,11,4,17,0.00
2012-1-4,60,42,18,18,12,6,85,39,12,0.00,40.00,14,7,23,0.00
2012-1-5,57,38,14,22,13,8,88,48,14,0.00,40.00,10,4,17,0.00
2012-1-6,58,41,15,26,16,12,90,47,18,0.00,40.00,10,4,15,0.00
2012-1-7,49,36,15,28,14,7,89,45,23,0.00,40.00,14,9,23,0.00
2012-1-8,40,31,25,19,9,-3,72,42,22,0.00,40.00,21,13,35,0.00
2012-1-9,52,36,14,18,11,3,84,40,16,0.00,40.00,15,7,23,0.00
2012-1-10,57,39,14,27,19,11,88,51,23,0.00,40.00,12,4,17,0.00
2012-1-11,51,37,13,22,13,1,87,43,18,0.00,40.00,11,8,17,0.00
2012-1-12,47,33,9,4,-6,-12,66,21,9,0.00,40.00,13,6,20,0.00
2012-1-13,54,36,7,4,-8,-15,68,19,5,0.00,40.00,8,5,12,0.00
2012-1-14,56,40,9,11,5,0,75,30,12,0.00,40.00,8,4,15,0.00
2012-1-15,46,35,14,27,17,7,90,51,27,0.00,40.00,15,9,25,0.00
2012-1-16,38,32,29,29,26,22,95,80,54,0.00,40.00,17,10,29,0.03
2012-1-17,44,34,12,26,20,9,93,62,30,0.00,40.00,10,6,17,0.03
2012-1-18,54,38,11,23,13,7,91,45,15,0.00,40.00,8,4,15,0.00
2012-1-19,61,43,15,23,16,12,87,42,17,0.00,40.00,11,5,16,0.00
2012-1-20,58,42,16,19,11,3,85,38,13,0.00,40.00,6,3,14,0.00
2012-1-21,41,33,21,33,24,15,93,72,43,0.00,40.00,23,12,46,0.05
2012-1-22,36,27,15,23,15,6,87,63,28,0.00,40.00,10,6,21,0.01
2012-1-23,38,28,13,28,20,9,95,74,40,0.00,40.00,12,6,19,0.01
2012-1-24,39,31,25,26,22,15,96,70,43,0.00,40.00,16,9,26,0.08
2012-1-25,55,37,22,21,15,5,77,42,24,0.00,40.00,13,6,24,0.01
2012-1-26,57,39,16,26,20,13,88,53,21,0.00,40.00,12,5,22,0.00
2012-1-27,47,35,16,28,17,7,90,54,21,0.00,40.00,13,6,26,0.00
2012-1-28,52,32,5,9,-6,-18,80,30,6,0.00,40.00,12,6,21,0.00
2012-1-29,57,33,9,12,5,2,79,41,11,0.00,40.00,8,4,15,0.00
2012-1-30,52,32,9,16,11,5,82,50,18,0.00,40.00,13,5,20,0.00
2012-1-31,50,33,17,22,15,9,81,55,19,0.00,40.00,10,4,17,0.00
2012-2-1,48,30,12,26,15,8,88,60,27,0.00,40.00,11,4,18,0.00
2012-2-2,36,27,16,28,23,13,92,84,61,0.00,40.00,11,5,18,0.03
2012-2-3,38,26,7,26,17,3,93,73,45,0.00,40.00,8,3,13,0.01
2012-2-4,43,28,11,20,16,8,92,65,27,0.00,40.00,13,5,22,0.01
2012-2-5,46,29,11,22,17,7,91,64,32,0.00,40.00,9,4,22,0.01
2012-2-6,45,32,9,25,12,5,91,48,25,0.00,40.00,11,5,18,0.00
2012-2-7,44,33,25,16,10,5,54,39,21,0.00,40.00,12,8,19,0.00
2012-2-8,55,41,22,24,20,13,83,44,29,0.00,40.00,8,4,14,0.00
2012-2-9,55,42,16,25,17,13,89,43,20,0.00,40.00,14,7,24,0.00
2012-2-10,58,42,17,27,17,13,89,45,19,0.00,40.00,10,5,19,0.00
2012-2-11,53,42,16,24,18,12,87,42,24,0.00,40.00,16,9,33,0.00
2012-2-12,42,36,31,30,24,19,94,65,39,0.00,40.00,14,8,26,0.00
2012-2-13,34,32,29,30,28,26,92,86,77,0.00,40.00,16,10,31,0.02
2012-2-14,36,29,22,28,21,13,90,73,40,0.00,40.00,16,8,37,0.03
2012-2-15,30,24,13,25,21,11,95,88,77,0.00,40.00,10,6,19,0.01
2012-2-16,43,31,13,22,19,10,91,63,37,0.00,40.00,14,7,23,0.03
2012-2-17,48,34,13,22,12,4,87,46,19,0.00,40.00,11,6,23,0.01
2012-2-18,50,33,10,22,12,6,87,51,18,0.00,40.00,12,5,19,0.00
2012-2-19,35,29,22,30,23,16,91,78,68,0.00,40.00,10,6,22,0.06
2012-2-20,45,26,6,16,7,1,89,55,16,0.00,40.00,12,4,20,0.01
2012-2-21,54,32,10,19,9,4,86,50,13,0.00,40.00,10,4,17,0.00
2012-2-22,56,37,19,26,21,15,88,58,27,0.00,40.00,12,6,19,0.00
2012-2-23,56,40,18,25,15,9,90,42,16,0.00,40.00,20,10,31,0.00
2012-2-24,56,40,11,13,6,0,81,30,11,0.00,40.00,10,6,16,0.00
2012-2-25,57,43,14,19,12,7,77,34,17,0.00,40.00,14,8,26,0.00
2012-2-26,53,41,11,18,9,-25,81,34,4,0.00,40.00,12,7,23,0.00
2012-2-27,49,38,22,24,20,14,71,50,31,0.00,40.00,23,14,44,0.00
2012-2-28,32,24,-2,27,20,-7,95,85,55,0.00,40.00,18,12,33,0.00
2012-2-29,45,32,-8,21,11,-14,80,46,26,0.00,40.00,14,8,24,0.02
2012-3-1,45,32,21,21,18,15,79,56,30,0.00,40.00,16,9,31,0.01
2012-3-2,36,27,16,18,2,-9,66,37,14,0.00,40.00,19,12,33,0.00
2012-3-3,51,36,22,18,6,-4,79,31,20,0.00,40.00,14,10,24,0.00
2012-3-4,63,39,13,24,12,3,87,47,9,0.00,40.00,9,4,15,0.00
2012-3-5,63,40,16,27,13,7,85,46,11,0.00,40.00,9,4,15,0.00
2012-3-6,56,42,18,18,10,-3,82,35,9,0.00,40.00,27,15,51,0.00
2012-3-7,36,26,21,21,13,4,83,59,37,0.00,40.00,20,9,37,0.00
2012-3-8,50,34,21,20,16,13,82,52,23,0.00,40.00,17,9,28,0.00
2012-3-9,51,38,19,17,11,-4,74,40,10,0.00,40.00,17,8,28,0.00
2012-3-10,53,41,13,24,14,-100,84,40,20,0.00,40.00,12,7,26,0.00
2012-3-11,54,42,13,22,13,7,86,35,15,0.00,40.00,17,10,27,0.00
2012-3-12,59,45,20,15,9,1,65,28,11,0.00,40.00,14,9,23,0.00
2012-3-13,60,47,12,8,0,-7,70,19,7,0.00,40.00,16,11,27,0.00
2012-3-14,60,43,13,11,1,-11,61,23,5,0.00,40.00,14,7,22,0.00
2012-3-15,64,48,15,16,11,7,73,30,13,0.00,40.00,10,5,23,0.00
2012-3-16,63,49,14,20,16,8,78,31,15,0.00,40.00,16,9,28,0.00
2012-3-17,52,44,36,36,22,16,92,46,25,0.00,40.00,23,13,37,0.19
2012-3-18,37,26,20,35,23,18,97,90,81,0.00,40.00,17,10,39,0.36
2012-3-19,28,20,7,23,16,3,91,84,70,0.00,40.00,10,5,17,0.20
2012-3-20,37,25,2,23,17,-2,93,73,45,0.00,40.00,12,8,20,0.16
2012-3-21,53,38,9,28,23,6,93,58,36,0.00,40.00,12,6,17,0.09
2012-3-22,65,44,8,29,15,-100,93,43,10,0.00,40.00,7,-13,12,0.00
2012-3-23,59,44,21,30,26,18,92,56,31,0.00,40.00,12,6,22,0.00
2012-3-24,60,44,21,27,23,19,93,51,25,0.00,40.00,12,6,22,0.00
2012-3-25,57,47,25,27,22,19,88,40,24,0.00,40.00,19,12,36,0.00
2012-3-26,54,43,23,31,24,17,86,50,24,0.00,40.00,19,12,34,0.00
2012-3-27,60,43,19,26,19,8,91,48,15,0.00,40.00,13,6,23,0.00
2012-3-28,62,46,19,29,17,8,88,40,12,0.00,40.00,14,7,23,0.00
2012-3-29,62,44,21,30,21,17,87,48,18,0.00,40.00,12,5,21,0.00
2012-3-30,67,47,22,28,22,18,87,47,17,0.00,40.00,11,4,19,0.00
2012-3-31,66,49,22,34,25,19,90,46,21,0.00,40.00,19,9,33,0.00
2012-4-1,51,43,30,27,19,4,73,40,16,0.00,40.00,21,13,34,0.00
2012-4-2,46,33,22,21,11,4,83,46,18,0.00,40.00,17,10,32,0.00
2012-4-3,59,39,19,22,17,12,81,47,19,0.00,40.00,12,6,30,0.00
2012-4-4,62,43,18,26,17,12,84,43,16,0.00,40.00,13,6,25,0.00
2012-4-5,60,44,21,22,15,5,80,38,15,0.00,40.00,20,10,33,0.00
2012-4-6,56,43,19,6,-4,-24,48,17,3,0.00,40.00,15,10,29,0.00
2012-4-7,66,40,9,5,-1,-16,67,26,4,0.00,40.00,11,6,20,0.00
2012-4-8,69,49,20,19,11,5,60,28,10,0.00,40.00,9,5,22,0.00
2012-4-9,69,47,20,21,11,4,76,34,8,0.00,40.00,12,5,23,0.00
2012-4-10,68,50,20,20,13,8,67,30,10,0.00,40.00,18,8,31,0.00
2012-4-11,52,42,28,37,28,15,90,56,42,0.00,40.00,23,13,46,0.05
2012-4-12,51,41,33,30,17,-1,82,44,12,0.00,40.00,15,11,29,0.02
2012-4-13,46,40,29,20,12,3,61,33,18,0.00,40.00,18,10,36,0.00
2012-4-14,39,28,23,29,22,-100,96,82,32,0.00,40.00,16,12,37,0.08
2012-4-15,50,35,25,31,28,24,95,78,37,0.00,40.00,14,8,24,0.04
2012-4-16,59,39,20,32,23,17,94,60,20,0.00,40.00,10,4,19,0.01
2012-4-17,65,47,22,29,23,19,90,48,17,0.00,40.00,12,4,28,0.01
2012-4-18,66,48,24,32,21,11,92,46,12,0.00,40.00,17,6,27,0.00
2012-4-20,74,57,36,28,24,19,67,33,14,0.00,40.00,12,6,24,0.00
2012-4-21,77,55,28,34,27,22,86,43,13,0.00,40.00,9,3,18,0.00
2012-4-22,80,59,30,34,25,17,84,38,10,0.00,40.00,13,5,21,0.00
2012-4-23,78,58,29,34,22,13,83,35,9,0.00,40.00,14,7,27,0.00
2012-4-24,74,55,30,32,15,-4,79,30,5,0.00,40.00,18,7,29,0.00
2012-4-25,70,53,30,35,26,15,72,39,20,0.00,40.00,11,4,24,0.00
2012-4-26,52,43,33,38,31,19,93,65,30,0.00,40.00,17,9,29,0.42
2012-4-27,64,47,28,37,31,25,96,61,26,0.00,40.00,11,5,23,0.02
2012-4-28,66,50,33,32,25,-100,88,44,18,0.00,40.00,10,5,31,0.00
2012-4-29,68,50,25,29,20,13,84,39,13,0.00,40.00,12,5,23,0.00
2012-4-30,70,52,25,30,20,15,85,38,13,0.00,40.00,14,6,25,0.00
2012-5-1,65,50,28,36,28,25,87,48,22,0.00,40.00,19,8,29,0.00
2012-5-2,66,51,33,34,28,23,86,46,22,0.00,40.00,15,8,27,0.00
2012-5-3,69,54,31,36,27,21,78,39,19,0.00,40.00,16,10,27,0.00
2012-5-4,71,56,27,29,20,15,78,31,12,0.00,40.00,18,10,30,0.00
2012-5-5,69,52,25,21,16,-100,69,29,13,0.00,40.00,16,8,32,0.00
2012-5-6,64,47,21,21,13,9,68,32,12,0.00,40.00,11,5,21,0.00
2012-5-7,63,45,20,16,7,-6,64,28,7,0.00,40.00,14,6,31,0.00
2012-5-11,74,55,27,27,16,6,64,27,9,0.00,40.00,15,7,27,0.00
2012-5-12,74,52,24,21,13,-100,57,28,9,0.00,40.00,12,4,27,0.00
2012-5-13,76,62,26,22,8,-8,58,17,4,0.00,40.00,17,9,34,0.00
2012-5-14,80,64,25,16,9,1,45,14,5,0.00,40.00,16,8,26,0.00
2012-5-15,77,67,27,21,18,13,56,18,11,0.00,40.00,15,10,29,0.00
2012-5-16,76,65,28,25,15,0,62,19,5,0.00,40.00,16,10,34,0.00
2012-5-17,78,66,27,22,13,10,49,15,8,0.00,40.00,19,10,34,0.00
2012-5-18,69,60,32,27,18,7,38,21,9,0.00,40.00,20,12,33,0.00
2012-5-19,73,59,23,24,14,-100,52,21,9,0.00,40.00,11,6,22,0.00
2012-5-20,81,64,26,20,16,9,52,19,9,0.00,40.00,11,5,19,0.00
2012-5-21,81,68,30,23,14,7,53,17,6,0.00,40.00,13,7,22,0.00
2012-5-22,81,65,30,21,12,4,50,17,5,0.00,40.00,20,10,37,0.00
2012-5-23,78,64,37,27,21,9,35,20,12,0.00,40.00,22,13,40,0.00
2012-5-24,74,62,39,36,31,23,66,33,18,0.00,40.00,18,11,34,0.00
2012-5-25,68,58,48,38,32,23,57,38,26,0.00,40.00,19,16,41,0.00
2012-6-11,80,68,29,25,18,13,53,18,9,0.00,40.00,16,7,25,0.00
2012-6-12,83,69,28,21,10,-6,47,14,3,0.00,40.00,12,6,23,0.00
2012-6-13,82,69,31,21,10,6,42,13,6,0.00,40.00,15,8,28,0.00
2012-6-14,80,68,31,23,13,5,44,15,6,0.00,40.00,11,7,26,0.00
2012-6-15,79,62,31,32,12,2,40,18,5,0.00,40.00,15,7,26,0.00
2012-6-16,82,66,32,23,14,-100,44,17,6,0.00,40.00,13,6,26,0.00
2012-6-17,87,71,35,29,22,15,46,18,8,0.00,40.00,14,7,24,0.00
2012-6-18,84,70,37,30,18,6,51,18,5,0.00,40.00,18,10,36,0.00
2012-6-19,86,71,29,21,15,10,46,15,6,0.00,40.00,13,7,24,0.00
2012-6-20,90,77,34,21,13,4,41,12,4,0.00,40.00,10,6,21,0.00
2012-6-21,88,75,37,22,13,6,39,12,5,0.00,40.00,15,9,26,0.00
2012-6-22,85,72,37,33,23,9,44,18,8,0.00,40.00,21,11,35,0.00
2012-6-23,86,72,36,26,21,16,47,17,9,0.00,40.00,20,11,33,0.00
2012-6-24,86,72,41,34,28,19,43,21,10,0.00,40.00,14,8,28,0.00
2012-6-25,84,70,44,49,38,27,59,35,19,0.00,40.00,15,7,25,0.00
2012-6-26,82,70,42,44,39,28,60,34,22,0.00,40.00,15,8,31,0.00
2012-6-27,84,70,42,46,40,32,67,38,21,0.00,40.00,14,7,29,0.00
2012-6-28,86,71,44,47,39,30,81,39,15,0.00,40.00,16,8,30,0.00
2012-6-29,87,73,43,43,34,30,59,28,14,0.00,40.00,13,7,26,0.00
2012-6-30,87,75,39,33,26,20,59,19,10,0.00,40.00,13,8,23,0.00
2012-7-1,86,71,44,30,24,20,39,20,10,0.00,40.00,16,7,28,0.00
2012-7-2,86,71,48,35,30,21,39,23,14,0.00,40.00,13,6,23,0.00
2012-7-3,82,69,45,49,38,28,52,34,20,0.00,40.00,12,6,24,0.00
2012-7-4,72,62,47,52,45,33,83,56,40,0.00,40.00,12,5,17,0.00
2012-7-5,80,66,50,52,43,33,90,50,22,0.00,40.00,12,7,24,0.00
2012-7-6,82,67,41,40,31,24,70,31,13,0.00,40.00,9,5,18,0.00
2012-7-7,87,69,43,38,32,26,57,28,13,0.00,40.00,9,4,14,0.00
2012-7-8,86,69,46,43,37,32,58,34,17,0.00,40.00,14,5,27,0.00
2012-7-9,87,72,45,45,39,35,72,35,16,0.00,40.00,11,4,35,0.00
2012-7-10,88,70,45,58,39,34,73,37,17,0.00,40.00,14,4,26,0.04
2012-7-11,83,67,44,53,46,39,85,51,28,0.00,40.00,9,4,17,0.02
2012-7-12,82,66,53,59,51,42,93,62,31,0.00,40.00,11,4,18,0.12
2012-7-13,79,63,53,59,54,50,97,77,36,0.00,40.00,14,4,22,0.02
2012-7-14,67,59,52,60,56,51,99,91,71,0.00,40.00,11,5,17,0.85
2012-7-15,76,62,50,58,53,49,100,77,45,0.00,40.00,11,6,19,0.36
2012-7-16,75,63,50,56,50,41,98,69,32,0.00,40.00,15,7,24,0.09
2012-7-17,79,62,43,49,43,38,97,57,27,0.00,40.00,13,6,23,0.00
2012-7-18,82,64,41,45,37,25,93,47,16,0.00,40.00,11,5,26,0.00
2012-7-19,82,67,50,47,42,36,82,46,20,0.00,40.00,10,4,17,0.00
2012-7-20,86,67,55,60,50,42,88,61,22,0.00,40.00,13,5,25,0.25
2012-7-21,77,66,54,56,52,49,90,63,37,0.00,40.00,15,5,23,0.01
2012-7-22,84,65,50,55,50,44,95,65,25,0.00,40.00,12,5,33,0.01
2012-7-23,77,63,57,60,55,48,98,79,36,0.00,40.00,10,3,17,0.26
2012-7-24,75,63,55,58,56,53,99,82,47,0.00,40.00,10,4,22,0.03
2012-7-25,80,67,53,57,51,45,98,63,32,0.00,40.00,10,5,20,0.01
2012-7-26,82,62,46,55,49,43,98,69,26,0.00,40.00,12,4,29,0.14
2012-7-27,79,62,50,59,53,49,99,77,35,0.00,40.00,14,4,22,0.20
2012-7-28,80,64,50,57,53,49,97,72,38,0.00,40.00,9,4,22,0.05
2012-7-29,73,63,57,62,58,54,98,85,54,0.00,40.00,11,4,21,0.26
2012-7-30,77,65,54,59,56,53,98,75,45,0.00,40.00,15,6,24,0.09
2012-7-31,79,62,50,57,52,49,99,76,36,0.00,40.00,11,5,21,0.81
2012-8-1,76,63,55,58,54,47,97,76,39,0.00,40.00,10,5,19,0.85
2012-8-2,79,71,56,55,50,45,94,51,30,0.00,40.00,11,5,16,0.00
2012-8-3,83,64,48,56,50,47,96,67,30,0.00,40.00,10,3,18,0.13
2012-8-4,79,66,54,58,51,44,94,62,31,0.00,40.00,15,5,21,0.21
2012-8-5,79,60,48,59,53,47,98,78,39,0.00,40.00,10,4,17,0.13
2012-8-6,83,64,54,59,53,49,98,70,31,0.00,40.00,14,4,23,0.54
2012-8-7,83,65,50,60,53,49,98,70,31,0.00,40.00,10,3,24,0.44
2012-8-8,86,67,49,58,50,46,97,63,27,0.00,40.00,16,4,22,0.00
2012-8-9,85,67,50,57,50,45,94,60,29,0.00,40.00,15,5,25,0.00
2012-8-10,87,72,52,57,46,37,87,47,17,0.00,40.00,9,6,20,0.01
2012-8-11,87,69,50,53,47,-100,92,54,21,0.00,40.00,13,4,22,0.01
2012-8-12,85,67,50,53,48,39,91,56,21,0.00,40.00,14,5,25,0.01
2012-8-13,84,66,47,54,46,41,93,56,23,0.00,40.00,13,5,27,0.01
2012-8-14,85,69,50,54,45,39,88,50,20,0.00,40.00,13,5,25,0.00
2012-8-15,82,66,47,52,45,40,89,54,24,0.00,40.00,10,3,17,0.00
2012-8-16,84,63,50,55,51,45,96,71,30,0.00,40.00,11,5,27,0.97
2012-8-17,77,62,56,61,56,54,97,84,47,0.00,40.00,6,3,17,0.66
2012-8-18,78,63,54,62,56,52,98,80,47,0.00,40.00,9,4,22,0.01
2012-8-19,81,66,52,61,54,49,97,71,37,0.00,40.00,13,4,18,0.01
2012-8-20,80,64,53,61,56,52,97,77,40,0.00,40.00,13,4,24,0.18
2012-8-21,74,61,57,61,57,53,98,88,59,0.00,40.00,12,4,18,0.27
2012-8-22,72,60,48,59,55,47,98,84,60,0.00,40.00,11,4,24,0.51
2012-8-23,70,59,51,57,54,50,98,83,53,0.00,40.00,13,5,36,0.92
2012-8-24,75,60,48,58,53,47,99,81,46,0.00,40.00,8,4,18,0.01
2012-8-25,76,60,46,56,51,45,98,76,41,0.00,40.00,14,4,25,0.01
2012-8-26,79,62,46,58,51,45,98,73,39,0.00,40.00,13,3,22,0.00
2012-8-27,82,64,47,56,51,46,97,68,30,0.00,40.00,8,3,18,0.00
2012-8-28,82,62,48,61,52,47,98,76,33,0.00,40.00,18,4,28,0.21
2012-8-29,81,64,47,59,51,46,98,69,35,0.00,40.00,12,4,17,0.14
2012-8-30,80,64,49,53,48,42,93,63,29,0.00,40.00,11,4,18,0.00
2012-8-31,77,63,50,59,52,48,97,73,41,0.00,40.00,13,4,31,0.04
2012-9-1,73,60,47,58,53,46,98,80,54,0.00,40.00,10,4,16,0.04
2012-9-2,77,61,54,58,54,49,97,82,38,0.00,40.00,15,4,23,0.19
2012-9-3,78,61,46,59,52,45,98,77,37,0.00,40.00,11,3,16,0.14
2012-9-4,75,59,46,58,53,45,98,84,49,0.00,40.00,11,3,16,0.27
2012-9-5,80,62,45,58,51,44,98,74,36,0.00,40.00,10,4,20,0.07
2012-9-6,78,64,46,56,52,45,97,70,38,0.00,40.00,9,3,17,0.04
2012-9-7,75,61,52,58,54,51,98,82,49,0.00,40.00,9,4,24,0.00
2012-9-8,78,62,47,51,46,40,88,59,26,0.00,40.00,8,5,20,0.00
2012-9-9,76,58,39,55,46,38,96,68,30,0.00,40.00,14,4,20,0.00
2012-9-10,74,59,47,55,52,46,97,81,45,0.00,40.00,11,5,21,0.02
2012-9-11,60,55,46,55,53,45,98,92,76,0.00,40.00,9,5,18,0.32
2012-9-12,68,58,51,53,50,43,97,76,42,0.00,40.00,13,7,19,0.12
2012-9-13,71,62,39,45,41,35,94,50,32,0.00,40.00,17,9,27,0.00
2012-9-14,71,58,35,42,37,33,95,53,28,0.00,40.00,11,5,24,0.00
2012-9-15,77,60,32,40,35,30,94,47,20,0.00,40.00,11,5,22,0.00
2012-9-16,76,59,32,44,33,27,94,46,19,0.00,40.00,9,5,21,0.00
2012-9-17,74,62,32,45,34,28,93,41,19,0.00,40.00,11,5,19,0.00
2012-9-18,79,64,31,36,32,26,92,38,16,0.00,40.00,10,4,16,0.00
2012-9-19,79,62,32,39,32,29,88,42,18,0.00,40.00,9,4,20,0.00
2012-9-20,80,67,34,41,34,30,88,36,17,0.00,40.00,7,4,16,0.00
2012-9-21,78,62,33,45,34,29,89,43,17,0.00,40.00,6,3,16,0.00
2012-9-22,79,61,37,42,32,-100,82,43,18,0.00,40.00,10,5,26,0.00
2012-9-23,76,61,39,43,38,33,86,48,22,0.00,40.00,11,4,29,0.00
2012-9-24,73,61,35,44,33,27,94,41,22,0.00,40.00,21,10,33,0.00
2012-9-25,72,60,33,40,31,28,85,36,21,0.00,40.00,13,8,27,0.00
2012-9-26,70,57,30,37,33,26,84,44,24,0.00,40.00,10,4,21,0.00
2012-10-5,72,59,25,31,25,20,82,32,16,0.00,40.00,12,6,19,0.00
2012-10-6,71,59,28,33,26,20,78,32,17,0.00,40.00,11,6,21,0.00
2012-10-7,73,58,24,29,24,18,77,33,17,0.00,40.00,9,4,18,0.00
2012-10-8,70,57,26,36,29,19,83,38,23,0.00,40.00,14,8,24,0.00
2012-10-9,69,58,25,43,33,19,81,43,23,0.00,40.00,10,6,24,0.00
2012-10-10,67,57,28,40,36,23,82,47,31,0.00,40.00,13,8,26,0.00
2012-10-11,63,50,28,48,40,25,93,70,38,0.00,40.00,19,9,34,0.30
2012-10-12,47,41,26,44,35,25,95,81,53,0.00,40.00,14,8,23,0.63
2012-10-13,61,41,24,39,32,22,94,74,44,0.00,40.00,13,5,21,0.01
2012-10-14,67,50,27,40,35,25,95,61,34,0.00,40.00,8,4,17,0.00
2012-10-15,72,54,26,41,30,24,94,50,20,0.00,40.00,8,4,14,0.00
2012-10-16,73,56,26,38,24,13,91,42,10,0.00,40.00,10,5,17,0.00
2012-10-17,70,55,27,38,27,10,90,41,10,0.00,40.00,12,6,20,0.00
2012-10-18,72,52,22,28,18,12,81,37,10,0.00,40.00,8,4,16,0.00
2012-10-19,77,57,23,29,20,15,81,33,10,0.00,40.00,9,4,16,0.00
2012-10-20,68,55,22,34,28,17,85,41,20,0.00,40.00,14,7,23,0.00
2012-10-21,63,52,27,39,35,24,91,54,35,0.00,40.00,14,8,27,0.00
2012-10-22,63,51,42,45,39,33,95,69,35,0.00,40.00,14,9,27,0.00
2012-10-23,63,50,35,43,37,29,94,67,29,0.00,40.00,15,10,32,0.00
2012-10-24,60,46,25,38,20,-1,88,44,10,0.00,40.00,17,9,30,0.00
2012-10-25,55,41,13,18,14,7,75,37,20,0.00,40.00,17,8,27,0.00
2012-10-27,68,50,15,14,9,1,60,24,10,0.00,40.00,9,4,15,0.00
2012-10-28,70,54,18,16,11,8,67,24,10,0.00,40.00,7,4,17,0.00
2012-10-29,69,53,16,18,9,5,71,24,8,0.00,40.00,10,5,19,0.00
2012-10-30,69,53,16,19,8,1,70,23,7,0.00,40.00,8,4,16,0.00
2012-10-31,71,54,17,18,12,6,62,23,10,0.00,40.00,7,4,18,0.00
2012-11-1,65,50,16,19,9,2,69,25,8,0.00,40.00,15,7,25,0.00
2012-11-2,63,49,23,25,19,11,67,33,17,0.00,40.00,10,4,18,0.00
2012-11-3,64,48,18,30,22,11,76,40,21,0.00,40.00,9,4,15,0.00
2012-11-4,68,51,17,23,16,10,83,33,14,0.00,40.00,8,4,14,0.00
2012-11-5,72,51,20,23,19,9,64,33,15,0.00,40.00,11,4,17,0.00
2012-11-6,71,52,17,25,17,10,74,33,12,0.00,40.00,9,4,15,0.00
2012-11-7,68,52,19,27,18,10,74,31,12,0.00,40.00,10,5,18,0.00
2012-11-8,61,45,15,41,28,9,96,58,19,0.00,40.00,17,10,37,0.09
2012-11-9,46,41,33,41,38,28,96,86,73,0.00,40.00,19,14,36,0.45
2012-11-10,35,26,11,28,14,4,87,64,31,0.00,40.00,14,8,31,0.02
2012-11-11,35,23,3,16,7,-3,85,53,25,0.00,40.00,11,5,18,0.01
2012-11-12,49,28,12,11,3,-6,81,43,11,0.00,40.00,11,5,17,0.01
2012-11-13,60,32,11,16,10,6,83,50,13,0.00,40.00,7,3,12,0.00
2012-11-14,60,36,12,27,10,-100,79,46,11,0.00,40.00,7,3,12,0.00
2012-11-15,57,36,16,28,15,10,85,50,15,0.00,40.00,9,4,15,0.00
2012-11-26,55,22,15,22,12,9,81,69,27,0.00,40.00,4,1,7,0.00
2012-11-27,59,35,14,21,16,9,83,53,19,0.00,40.00,10,4,18,0.00
2012-11-28,59,38,16,28,21,12,86,56,27,0.00,40.00,13,5,26,0.00
2012-11-29,56,36,16,31,23,12,93,65,32,0.00,40.00,16,5,25,0.00
2012-11-30,57,37,20,38,28,18,94,73,30,0.00,40.00,10,4,16,0.00
2012-12-1,57,35,16,34,24,12,92,68,33,0.00,40.00,10,4,19,0.00
2012-12-2,55,36,15,36,26,12,89,70,39,0.00,40.00,12,6,21,0.00
2012-12-3,57,40,20,39,32,17,94,74,43,0.00,40.00,8,4,17,0.00
2012-12-4,63,38,18,32,22,14,90,60,22,0.00,40.00,11,3,16,0.00
2012-12-5,65,37,18,25,15,-2,81,50,7,0.00,40.00,11,3,21,0.00
2012-12-6,58,34,18,32,19,-100,86,62,37,0.00,40.00,11,3,24,0.00
2012-12-7,53,31,13,32,16,9,89,60,21,0.00,40.00,9,3,17,0.00
2012-12-8,51,23,8,22,9,2,83,63,18,0.00,40.00,10,2,16,0.00
2012-12-9,42,26,8,15,6,-3,75,46,27,0.00,40.00,18,9,30,0.00
2012-12-10,46,33,14,15,10,0,72,41,25,0.00,40.00,11,7,21,0.00
2012-12-11,47,21,6,11,5,0,79,55,21,0.00,40.00,6,3,14,0.00
2012-12-12,47,30,8,11,7,0,71,42,22,0.00,40.00,13,6,26,0.00
2012-12-13,43,34,16,32,19,3,95,57,36,0.00,40.00,21,11,35,0.01
2012-12-14,33,29,26,32,27,23,96,91,84,0.00,40.00,11,7,21,0.01
2012-12-15,30,24,-7,27,21,-13,93,88,74,0.00,40.00,9,5,18,0.01
2012-12-16,35,18,-7,25,13,-13,93,81,61,0.00,40.00,6,2,10,0.50
2012-12-17,37,30,25,32,27,23,96,89,76,0.00,40.00,7,3,16,0.04
2012-12-18,37,33,28,31,30,26,95,88,74,0.00,40.00,20,10,40,0.08
2012-12-19,29,19,-10,28,13,-17,95,79,58,0.00,40.00,16,11,32,0.01
2012-12-20,42,26,-12,11,5,-19,76,44,21,0.00,40.00,9,5,16,0.03
2012-12-21,50,23,-8,8,2,-14,78,48,12,0.00,40.00,9,4,14,0.01
2012-12-22,49,32,8,23,15,2,87,52,34,0.00,40.00,10,5,18,0.00
2012-12-23,47,30,7,24,13,2,88,53,25,0.00,40.00,12,5,17,0.00
2012-12-24,36,27,12,27,20,6,88,76,66,0.00,40.00,20,11,42,0.00
2012-12-25,38,21,12,17,5,0,80,55,22,0.00,40.00,15,6,27,0.01
2012-12-26,36,23,14,23,10,0,90,60,37,0.00,40.00,15,6,24,0.01
2012-12-27,32,21,-1,20,16,-6,92,81,59,0.00,40.00,12,6,23,0.06
2012-12-28,35,17,-14,20,4,-21,88,61,33,0.00,40.00,7,3,12,0.02
2012-12-29,36,23,4,11,8,-1,82,53,28,0.00,40.00,12,8,21,0.02
2012-12-30,35,24,3,23,16,-3,91,71,45,0.00,40.00,14,5,22,0.00
2012-12-31,26,20,-7,20,15,-13,90,82,66,0.00,40.00,9,5,14,0.02
2013-1-1,31,16,-14,19,4,-22,75,58,41,0.00,40.00,9,5,19,0.06